Time;durP1;ratioP1;P1;durP2;ratioP2;P2;SDS_P1;SDS_P2;PMS_P1;PMS_P2;Temp;Humidity;BMP_temperature;BMP_pressure;BME280_temperature;BME280_humidity;BME280_pressure;Samples;Min_cycle;Max_cycle;Signal;HPM_P1;HPM_P2
2022/07/08 00:01:45;;;;;;;;;;;;;;;33.28;28.75;102362.09;4427663;32;20455;-70
2022/07/08 00:04:11;;;;;;;;;;;;;;;33.17;28.80;102353.56;4431427;32;20063;-70
2022/07/08 00:06:37;;;;;;;;;;;;;;;33.33;28.57;102358.28;4434987;32;20455;-70
2022/07/08 00:09:03;;;;;;;;;;;;;;;33.00;28.88;102361.84;4426285;32;21027;-69
2022/07/08 00:11:28;;;;;;;;;;;;;;;33.11;28.82;102370.38;4430094;32;19949;-69
2022/07/08 00:13:53;;;;;;;;;;;;;;;33.14;28.54;102354.66;4433413;32;20455;-69
2022/07/08 00:16:19;;;;;;;;;;;;;;;33.11;28.63;102347.03;4429975;32;20960;-70
2022/07/08 00:18:44;;;;;;;;;;;;;;;33.17;28.59;102342.69;4426270;32;19957;-69
2022/07/08 00:21:10;;;;;;;;;;;;;;;32.87;29.01;102342.19;4430659;32;19957;-69
2022/07/08 00:23:36;;;;;;;;;;;;;;;33.11;28.67;102344.91;4430719;32;20019;-69
2022/07/08 00:26:01;;;;;;;;;;;;;;;33.07;28.64;102343.66;4430552;32;20005;-69
2022/07/08 00:28:27;;;;;;;;;;;;;;;33.14;28.61;102343.78;4429891;32;20011;-69
2022/07/08 00:30:52;;;;;;;;;;;;;;;33.10;28.60;102346.25;4433389;32;19957;-69
2022/07/08 00:33:18;;;;;;;;;;;;;;;33.37;28.10;102338.34;4430903;32;20008;-69
2022/07/08 00:35:43;;;;;;;;;;;;;;;33.30;28.25;102339.75;4433122;32;19961;-69
2022/07/08 00:38:09;;;;;;;;;;;;;;;33.29;28.17;102346.16;4433712;32;19957;-69
2022/07/08 00:40:34;;;;;;;;;;;;;;;33.35;28.08;102338.06;4428907;32;20658;-69
2022/07/08 00:43:00;;;;;;;;;;;;;;;33.31;28.07;102340.56;4433084;32;19981;-69
2022/07/08 00:45:26;;;;;;;;;;;;;;;33.24;28.05;102342.00;4431081;32;19976;-69
2022/07/08 00:47:52;;;;;;;;;;;;;;;33.17;28.18;102341.87;4432205;32;20314;-69
2022/07/08 00:50:17;;;;;;;;;;;;;;;32.99;28.54;102345.66;4432466;32;19965;-69
2022/07/08 00:52:43;;;;;;;;;;;;;;;33.08;28.22;102346.03;4431852;32;19987;-69
2022/07/08 00:55:08;;;;;;;;;;;;;;;33.21;28.22;102336.47;4432875;32;20052;-69
2022/07/08 00:57:35;;;;;;;;;;;;;;;33.23;28.22;102345.47;4432353;32;20004;-69
2022/07/08 01:00:01;;;;;;;;;;;;;;;33.08;28.31;102346.03;4433581;32;20037;-69
2022/07/08 01:02:26;;;;;;;;;;;;;;;33.11;28.30;102347.81;4432769;32;20035;-69
2022/07/08 01:04:52;;;;;;;;;;;;;;;33.29;28.01;102352.00;4433542;32;19949;-69
2022/07/08 01:07:18;;;;;;;;;;;;;;;33.17;28.20;102339.75;4431349;32;19984;-69
2022/07/08 01:09:44;;;;;;;;;;;;;;;32.95;28.47;102345.22;4431646;32;20416;-69
2022/07/08 01:12:09;;;;;;;;;;;;;;;33.09;28.33;102341.75;4433827;32;19993;-69
2022/07/08 01:14:35;;;;;;;;;;;;;;;33.06;28.27;102347.91;4435798;32;20021;-69
2022/07/08 01:17:00;;;;;;;;;;;;;;;33.08;28.27;102339.41;4431757;32;20119;-69
2022/07/08 01:19:26;;;;;;;;;;;;;;;33.02;28.41;102341.63;4429471;32;19953;-69
2022/07/08 01:21:51;;;;;;;;;;;;;;;33.11;28.26;102335.37;4431285;32;19976;-69
2022/07/08 01:24:17;;;;;;;;;;;;;;;33.10;27.84;102343.31;4431109;32;20354;-69
2022/07/08 01:26:43;;;;;;;;;;;;;;;33.10;28.13;102340.41;4435585;32;19985;-69
2022/07/08 01:29:09;;;;;;;;;;;;;;;33.29;27.88;102343.22;4432480;32;20243;-69
2022/07/08 01:31:35;;;;;;;;;;;;;;;33.21;27.98;102339.41;4433290;32;20392;-69
2022/07/08 01:34:00;;;;;;;;;;;;;;;33.10;28.12;102346.25;4431407;32;19997;-69
2022/07/08 01:36:25;;;;;;;;;;;;;;;33.13;28.04;102338.50;4434708;32;19998;-69
2022/07/08 01:38:51;;;;;;;;;;;;;;;33.11;28.11;102338.28;4431397;32;20417;-69
2022/07/08 01:41:16;;;;;;;;;;;;;;;33.00;28.25;102329.75;4430314;32;19953;-69
2022/07/08 01:43:42;;;;;;;;;;;;;;;33.05;28.16;102326.72;4431640;32;20367;-69
2022/07/08 01:46:08;;;;;;;;;;;;;;;33.08;28.09;102330.66;4434662;32;19973;-69
2022/07/08 01:48:33;;;;;;;;;;;;;;;33.13;27.98;102330.53;4429416;32;20004;-69
2022/07/08 01:50:59;;;;;;;;;;;;;;;32.82;28.37;102321.84;4435861;32;20023;-69
2022/07/08 01:53:25;;;;;;;;;;;;;;;32.99;28.09;102328.16;4436009;32;19969;-69
2022/07/08 01:55:51;;;;;;;;;;;;;;;32.99;28.16;102334.78;4433188;32;20342;-69
2022/07/08 01:58:17;;;;;;;;;;;;;;;32.94;28.12;102326.94;4433894;32;19976;-69
2022/07/08 02:00:42;;;;;;;;;;;;;;;32.93;28.20;102327.47;4432669;32;20367;-69
2022/07/08 02:03:08;;;;;;;;;;;;;;;32.42;28.85;102324.63;4430260;32;20361;-68
2022/07/08 02:05:34;;;;;;;;;;;;;;;32.08;29.19;102326.47;4427589;32;20016;-68
2022/07/08 02:08:03;;;;;;;;;;;;;;;32.59;28.54;102316.41;4430456;32;19978;-68
2022/07/08 02:10:28;;;;;;;;;;;;;;;32.57;28.55;102313.25;4431654;32;19953;-68
2022/07/08 02:12:54;;;;;;;;;;;;;;;32.68;28.17;102321.78;4433909;32;20350;-67
2022/07/08 02:15:19;;;;;;;;;;;;;;;32.47;28.56;102312.13;4420196;32;20231;-68
2022/07/08 02:17:44;;;;;;;;;;;;;;;32.65;28.39;102319.22;4429177;32;19989;-69
2022/07/08 02:20:11;;;;;;;;;;;;;;;32.58;28.33;102314.81;4429530;32;19958;-69
2022/07/08 02:22:37;;;;;;;;;;;;;;;32.36;28.52;102312.28;4432516;32;19996;-68
2022/07/08 02:25:03;;;;;;;;;;;;;;;32.31;28.70;102301.47;4432506;32;19991;-69
2022/07/08 02:27:29;;;;;;;;;;;;;;;32.57;28.39;102307.44;4432452;32;19949;-69
2022/07/08 02:29:55;;;;;;;;;;;;;;;32.45;28.40;102306.03;4428729;32;19969;-69
2022/07/08 02:32:20;;;;;;;;;;;;;;;32.54;28.35;102308.53;4429238;32;20295;-69
2022/07/08 02:34:46;;;;;;;;;;;;;;;32.54;28.42;102314.37;4427632;32;19971;-69
2022/07/08 02:37:13;;;;;;;;;;;;;;;32.70;28.20;102309.56;4430515;32;19979;-69
2022/07/08 02:39:38;;;;;;;;;;;;;;;32.34;28.41;102317.87;4429908;32;20426;-68
2022/07/08 02:42:04;;;;;;;;;;;;;;;32.28;28.45;102313.47;4430247;32;19961;-68
2022/07/08 02:44:29;;;;;;;;;;;;;;;32.47;28.36;102309.19;4428217;32;19972;-68
2022/07/08 02:46:55;;;;;;;;;;;;;;;32.31;28.61;102312.34;4425985;32;20000;-68
2022/07/08 02:49:20;;;;;;;;;;;;;;;32.19;28.71;102316.78;4429242;32;20038;-68
2022/07/08 02:51:46;;;;;;;;;;;;;;;32.40;28.50;102314.87;4428053;32;19961;-68
2022/07/08 02:54:11;;;;;;;;;;;;;;;32.31;28.46;102318.94;4430482;32;19984;-68
2022/07/08 02:56:37;;;;;;;;;;;;;;;32.44;28.26;102306.59;4426806;32;20395;-69
2022/07/08 02:59:03;;;;;;;;;;;;;;;32.24;28.39;102318.84;4429236;32;19957;-69
2022/07/08 03:01:29;;;;;;;;;;;;;;;32.28;28.27;102314.22;4427612;32;19953;-69
2022/07/08 03:03:59;;;;;;;;;;;;;;;32.55;27.86;102318.09;4428372;32;20267;-69
2022/07/08 03:06:26;;;;;;;;;;;;;;;32.44;27.90;102309.50;4431066;32;19985;-69
2022/07/08 03:08:54;;;;;;;;;;;;;;;32.57;27.76;102316.16;4429894;32;19957;-69
2022/07/08 03:11:20;;;;;;;;;;;;;;;32.50;27.82;102313.91;4429761;32;20011;-69
2022/07/08 03:13:45;;;;;;;;;;;;;;;32.38;27.92;102315.44;4431760;32;19965;-69
2022/07/08 03:16:11;;;;;;;;;;;;;;;32.32;28.08;102320.53;4430634;32;20049;-69
2022/07/08 03:18:36;;;;;;;;;;;;;;;32.48;27.83;102313.69;4429223;32;19965;-69
2022/07/08 03:21:03;;;;;;;;;;;;;;;32.29;27.83;102321.66;4427644;32;19952;-69
2022/07/08 03:23:31;;;;;;;;;;;;;;;32.26;28.16;102327.78;4428053;32;19961;-69
2022/07/08 03:25:56;;;;;;;;;;;;;;;32.10;28.30;102323.81;4428975;32;19985;-69
2022/07/08 03:28:22;;;;;;;;;;;;;;;32.08;28.32;102314.03;4428660;32;20429;-69
2022/07/08 03:30:47;;;;;;;;;;;;;;;32.04;28.51;102320.19;4427116;32;20264;-69
2022/07/08 03:33:12;;;;;;;;;;;;;;;31.87;28.54;102316.72;4434729;32;19999;-69
2022/07/08 03:35:38;;;;;;;;;;;;;;;31.99;28.44;102315.22;4430834;32;20442;-69
2022/07/08 03:38:03;;;;;;;;;;;;;;;32.02;28.32;102316.25;4431169;32;20048;-69
2022/07/08 03:43:15;;;;;;;;;;;;;;;31.96;28.41;102312.63;4431098;32;20016;-69
2022/07/08 03:45:40;;;;;;;;;;;;;;;31.90;28.47;102317.78;4427084;32;20008;-69
2022/07/08 03:48:06;;;;;;;;;;;;;;;31.80;28.56;102308.59;4430340;32;19964;-69
2022/07/08 03:50:31;;;;;;;;;;;;;;;31.77;28.62;102318.44;4429046;32;19991;-69
2022/07/08 03:52:57;;;;;;;;;;;;;;;31.66;28.84;102309.06;4431462;32;19969;-69
2022/07/08 03:55:25;;;;;;;;;;;;;;;31.58;28.90;102313.94;4430581;32;20009;-69
2022/07/08 03:57:50;;;;;;;;;;;;;;;31.67;28.87;102319.38;4428014;32;19973;-69
2022/07/08 04:00:16;;;;;;;;;;;;;;;31.79;28.68;102317.87;4430561;32;19971;-69
2022/07/08 04:02:45;;;;;;;;;;;;;;;31.74;28.62;102328.28;4427750;32;20347;-68
2022/07/08 04:05:10;;;;;;;;;;;;;;;31.48;29.12;102325.19;4430479;32;19967;-68
2022/07/08 04:07:36;;;;;;;;;;;;;;;31.54;29.00;102322.19;4430506;32;19994;-68
2022/07/08 04:10:03;;;;;;;;;;;;;;;31.48;28.86;102325.19;4431539;32;20638;-68
2022/07/08 04:12:29;;;;;;;;;;;;;;;31.59;28.90;102327.94;4427485;32;19945;-68
2022/07/08 04:14:54;;;;;;;;;;;;;;;31.60;28.87;102329.50;4425554;32;19971;-68
2022/07/08 04:17:19;;;;;;;;;;;;;;;31.71;28.73;102328.56;4425453;32;19994;-69
2022/07/08 04:19:46;;;;;;;;;;;;;;;31.60;28.85;102331.66;4426680;32;19965;-69
2022/07/08 04:22:11;;;;;;;;;;;;;;;31.69;28.81;102332.03;4428081;32;20370;-69
2022/07/08 04:24:37;;;;;;;;;;;;;;;31.77;28.64;102335.09;4432313;32;20009;-69
2022/07/08 04:27:03;;;;;;;;;;;;;;;31.66;28.72;102332.34;4432901;32;20390;-69
2022/07/08 04:29:28;;;;;;;;;;;;;;;31.68;28.60;102333.38;4426914;32;20297;-68
2022/07/08 04:31:54;;;;;;;;;;;;;;;31.79;28.62;102335.34;4432968;32;20002;-68
2022/07/08 04:34:19;;;;;;;;;;;;;;;31.82;28.52;102334.28;4435848;32;19983;-69
2022/07/08 04:36:45;;;;;;;;;;;;;;;31.82;28.51;102329.25;4429242;32;19987;-69
2022/07/08 04:39:10;;;;;;;;;;;;;;;31.89;28.48;102334.44;4431371;32;19964;-69
2022/07/08 04:41:37;;;;;;;;;;;;;;;31.82;28.38;102334.28;4433338;32;19949;-69
2022/07/08 04:44:03;;;;;;;;;;;;;;;31.83;28.54;102327.12;4432699;32;19977;-69
2022/07/08 04:46:29;;;;;;;;;;;;;;;31.92;28.29;102326.72;4433862;32;19949;-69
2022/07/08 04:48:55;;;;;;;;;;;;;;;32.19;28.03;102340.88;4428701;32;20012;-69
2022/07/08 04:51:20;;;;;;;;;;;;;;;32.23;27.91;102332.59;4433697;32;20020;-69
2022/07/08 04:53:45;;;;;;;;;;;;;;;32.31;27.99;102318.19;4430315;32;19941;-69
2022/07/08 04:56:11;;;;;;;;;;;;;;;32.47;27.70;102331.72;4433619;32;20065;-69
2022/07/08 04:58:36;;;;;;;;;;;;;;;32.47;27.67;102329.59;4429675;32;20016;-69
2022/07/08 05:01:02;;;;;;;;;;;;;;;32.56;27.25;102325.47;4432467;32;19989;-69
2022/07/08 05:03:28;;;;;;;;;;;;;;;32.81;27.21;102338.53;4434656;32;19972;-69
2022/07/08 05:05:54;;;;;;;;;;;;;;;32.83;27.30;102326.31;4430192;32;19993;-69
2022/07/08 05:08:19;;;;;;;;;;;;;;;32.84;26.98;102330.81;4432622;32;19953;-69
2022/07/08 05:10:45;;;;;;;;;;;;;;;32.87;27.12;102330.50;4429347;32;20005;-69
2022/07/08 05:13:12;;;;;;;;;;;;;;;32.74;27.40;102338.41;4430130;32;20274;-69
2022/07/08 05:15:37;;;;;;;;;;;;;;;33.05;26.92;102332.56;4430176;32;20007;-69
2022/07/08 05:18:02;;;;;;;;;;;;;;;33.27;26.66;102345.91;4431858;32;20187;-69
2022/07/08 05:20:29;;;;;;;;;;;;;;;32.83;26.99;102341.69;4436676;32;19970;-69
2022/07/08 05:22:54;;;;;;;;;;;;;;;33.12;26.80;102337.72;4432348;32;19965;-69
2022/07/08 05:25:19;;;;;;;;;;;;;;;33.38;26.39;102337.75;4430108;32;19988;-69
2022/07/08 05:27:45;;;;;;;;;;;;;;;33.70;26.22;102344.25;4430250;32;20059;-69
2022/07/08 05:30:11;;;;;;;;;;;;;;;33.52;26.46;102344.38;4429509;32;20347;-69
2022/07/08 05:32:37;;;;;;;;;;;;;;;33.37;26.67;102352.94;4430144;32;19946;-69
2022/07/08 05:35:03;;;;;;;;;;;;;;;33.42;26.70;102349.09;4431605;32;20047;-69
2022/07/08 05:37:29;;;;;;;;;;;;;;;33.67;26.31;102356.25;4432882;32;20011;-69
2022/07/08 05:39:55;;;;;;;;;;;;;;;33.42;26.51;102358.66;4428868;32;19961;-69
2022/07/08 05:42:20;;;;;;;;;;;;;;;33.72;26.08;102358.28;4429882;32;19992;-69
2022/07/08 05:44:46;;;;;;;;;;;;;;;33.95;25.97;102356.47;4431445;32;20395;-69
2022/07/08 05:47:13;;;;;;;;;;;;;;;34.10;25.83;102363.28;4428251;32;20298;-69
2022/07/08 05:49:39;;;;;;;;;;;;;;;34.03;25.86;102361.06;4431237;32;21485;-69
2022/07/08 05:52:05;;;;;;;;;;;;;;;34.10;25.82;102354.53;4429666;32;19961;-69
2022/07/08 05:54:32;;;;;;;;;;;;;;;34.16;25.80;102358.09;4430776;32;20628;-69
2022/07/08 05:56:58;;;;;;;;;;;;;;;34.38;25.59;102361.87;4428052;32;19973;-67
2022/07/08 05:59:23;;;;;;;;;;;;;;;34.52;25.45;102372.16;4428342;32;19958;-69
2022/07/08 06:01:49;;;;;;;;;;;;;;;34.58;25.28;102370.66;4431245;32;19949;-69
2022/07/08 06:04:14;;;;;;;;;;;;;;;34.76;25.24;102374.72;4431018;32;19984;-69
2022/07/08 06:06:40;;;;;;;;;;;;;;;34.49;25.35;102382.84;4430256;32;19963;-69
2022/07/08 06:09:05;;;;;;;;;;;;;;;34.90;25.00;102368.25;4429150;32;20355;-69
2022/07/08 06:11:31;;;;;;;;;;;;;;;34.70;25.17;102386.59;4430937;32;19984;-69
2022/07/08 06:13:56;;;;;;;;;;;;;;;34.74;25.21;102384.06;4428980;32;19945;-69
2022/07/08 06:16:22;;;;;;;;;;;;;;;35.03;24.93;102385.72;4429765;32;19980;-69
2022/07/08 06:18:47;;;;;;;;;;;;;;;35.15;24.81;102386.22;4427615;32;20009;-69
2022/07/08 06:21:13;;;;;;;;;;;;;;;34.97;25.11;102393.88;4431520;32;19969;-69
2022/07/08 06:23:38;;;;;;;;;;;;;;;34.38;25.92;102399.87;4429976;32;19953;-69
2022/07/08 06:26:05;;;;;;;;;;;;;;;34.30;25.95;102394.69;4426940;32;19961;-69
2022/07/08 06:28:30;;;;;;;;;;;;;;;34.54;25.72;102390.69;4423131;32;19997;-69
2022/07/08 06:30:56;;;;;;;;;;;;;;;34.53;25.86;102400.03;4426665;32;20306;-68
2022/07/08 06:33:21;;;;;;;;;;;;;;;34.86;25.49;102402.94;4424694;32;20394;-68
2022/07/08 06:35:47;;;;;;;;;;;;;;;34.96;25.31;102395.22;4413469;32;20023;-67
2022/07/08 06:38:12;;;;;;;;;;;;;;;35.20;24.83;102405.75;4419418;32;19981;-68
2022/07/08 06:40:38;;;;;;;;;;;;;;;35.12;25.11;102404.94;4416955;32;20005;-68
2022/07/08 06:43:03;;;;;;;;;;;;;;;34.87;25.44;102404.50;4409316;32;19974;-67
2022/07/08 06:45:32;;;;;;;;;;;;;;;35.10;24.91;102402.59;4414531;32;20001;-68
2022/07/08 06:47:58;;;;;;;;;;;;;;;35.60;24.71;102404.13;4412161;32;19988;-68
2022/07/08 06:50:24;;;;;;;;;;;;;;;35.55;24.97;102396.31;4410532;32;19997;-68
2022/07/08 06:52:50;;;;;;;;;;;;;;;35.91;24.50;102406.69;4409674;32;20354;-68
2022/07/08 06:55:15;;;;;;;;;;;;;;;35.64;24.86;102411.19;4417377;32;20398;-67
2022/07/08 06:57:41;;;;;;;;;;;;;;;35.73;24.74;102416.50;4413996;32;19992;-67
2022/07/08 07:00:07;;;;;;;;;;;;;;;35.25;25.29;102413.63;4408359;32;20432;-68
2022/07/08 07:02:32;;;;;;;;;;;;;;;35.54;24.80;102413.09;4405896;32;20109;-68
2022/07/08 07:04:57;;;;;;;;;;;;;;;35.91;24.43;102418.41;4412458;32;20180;-68
2022/07/08 07:07:23;;;;;;;;;;;;;;;35.49;25.03;102410.31;4414135;32;19981;-68
2022/07/08 07:09:48;;;;;;;;;;;;;;;36.13;24.50;102419.87;4414783;32;19965;-68
2022/07/08 07:12:15;;;;;;;;;;;;;;;36.04;24.62;102412.41;4394585;32;20008;-67
2022/07/08 07:14:40;;;;;;;;;;;;;;;35.14;25.82;102414.72;3690515;32;10000765;-67
2022/07/08 07:17:06;;;;;;;;;;;;;;;35.48;25.34;102411.66;4308284;32;20020;-69
2022/07/08 07:19:31;;;;;;;;;;;;;;;35.25;25.69;102413.63;4355288;32;19999;-69
2022/07/08 07:21:57;;;;;;;;;;;;;;;34.56;26.47;102414.31;4353899;32;19997;-68
2022/07/08 07:24:23;;;;;;;;;;;;;;;34.67;26.28;102410.31;4352371;32;19998;-70
2022/07/08 07:26:48;;;;;;;;;;;;;;;34.73;26.28;102408.06;4356288;32;20005;-70
2022/07/08 07:29:14;;;;;;;;;;;;;;;34.96;25.96;102412.78;4356977;32;20740;-69
2022/07/08 07:31:39;;;;;;;;;;;;;;;35.38;25.46;102408.50;4354380;32;20037;-70
2022/07/08 07:34:06;;;;;;;;;;;;;;;35.31;25.36;102405.47;4357165;32;20073;-69
2022/07/08 07:36:31;;;;;;;;;;;;;;;34.99;26.07;102405.00;4355572;32;20018;-69
2022/07/08 07:38:57;;;;;;;;;;;;;;;34.81;26.19;102408.91;4354896;32;20423;-69
2022/07/08 07:41:23;;;;;;;;;;;;;;;34.91;26.19;102415.88;4359584;32;20418;-69
2022/07/08 07:43:48;;;;;;;;;;;;;;;35.50;25.48;102411.88;4356287;32;22018;-69
2022/07/08 07:46:15;;;;;;;;;;;;;;;35.32;25.75;102418.75;4359963;32;20423;-69
2022/07/08 07:48:40;;;;;;;;;;;;;;;35.39;25.53;102420.97;4354249;32;20010;-69
2022/07/08 07:51:06;;;;;;;;;;;;;;;35.34;25.76;102416.84;4357877;32;20829;-70
2022/07/08 07:53:32;;;;;;;;;;;;;;;35.25;25.89;102419.47;4355784;32;20313;-70
2022/07/08 07:55:58;;;;;;;;;;;;;;;35.46;25.53;102429.81;4354528;32;19997;-69
2022/07/08 07:58:24;;;;;;;;;;;;;;;35.70;25.36;102417.66;4355651;32;20025;-69
2022/07/08 08:00:49;;;;;;;;;;;;;;;35.21;25.83;102416.91;4356327;32;20041;-69
2022/07/08 08:03:15;;;;;;;;;;;;;;;35.38;25.68;102420.19;4361718;32;20469;-69
2022/07/08 08:05:42;;;;;;;;;;;;;;;35.88;25.02;102418.78;4351719;32;20050;-69
2022/07/08 08:08:11;;;;;;;;;;;;;;;35.75;25.35;102421.81;4354378;32;20785;-69
2022/07/08 08:10:37;;;;;;;;;;;;;;;35.96;25.21;102423.31;4351650;32;20470;-68
2022/07/08 08:13:03;;;;;;;;;;;;;;;35.95;25.11;102418.81;4352715;32;20638;-68
2022/07/08 08:15:30;;;;;;;;;;;;;;;36.45;24.53;102419.41;4354385;32;20046;-68
2022/07/08 08:17:57;;;;;;;;;;;;;;;36.72;24.23;102423.59;4356614;32;19992;-69
2022/07/08 08:20:24;;;;;;;;;;;;;;;36.07;24.92;102428.84;4353515;32;20010;-68
2022/07/08 08:22:51;;;;;;;;;;;;;;;36.05;24.81;102422.75;4357278;32;20036;-68
2022/07/08 08:25:17;;;;;;;;;;;;;;;36.37;24.61;102431.13;4356535;32;20589;-68
2022/07/08 08:27:43;;;;;;;;;;;;;;;35.84;25.11;102435.94;4356852;32;20036;-69
2022/07/08 08:30:09;;;;;;;;;;;;;;;35.66;25.48;102431.91;4354981;32;19995;-69
2022/07/08 08:32:35;;;;;;;;;;;;;;;36.01;24.97;102437.00;4356142;32;20191;-70
2022/07/08 08:35:01;;;;;;;;;;;;;;;35.61;25.21;102437.91;4356818;32;19954;-69
2022/07/08 08:37:26;;;;;;;;;;;;;;;35.49;25.27;102430.81;4358381;32;20002;-70
2022/07/08 08:39:52;;;;;;;;;;;;;;;35.57;25.18;102438.28;4356387;32;20022;-70
2022/07/08 08:42:18;;;;;;;;;;;;;;;35.62;25.07;102431.47;4361288;32;20017;-69
2022/07/08 08:44:44;;;;;;;;;;;;;;;35.14;25.72;102422.69;4358498;32;20380;-69
2022/07/08 08:47:12;;;;;;;;;;;;;;;35.25;25.47;102423.16;4357645;32;20386;-70
2022/07/08 08:49:37;;;;;;;;;;;;;;;35.64;24.80;102419.97;4346199;32;20595;-71
2022/07/08 08:52:04;;;;;;;;;;;;;;;35.94;24.11;102428.97;4355583;32;20656;-69
2022/07/08 08:54:32;;;;;;;;;;;;;;;35.39;25.10;102412.97;4357224;32;19972;-69
2022/07/08 08:56:58;;;;;;;;;;;;;;;35.37;25.10;102418.62;4361012;32;20036;-69
2022/07/08 08:59:24;;;;;;;;;;;;;;;35.20;25.33;102408.69;4355021;32;19994;-69
2022/07/08 09:01:49;;;;;;;;;;;;;;;35.87;24.58;102409.22;4353690;32;20006;-69
2022/07/08 09:04:16;;;;;;;;;;;;;;;35.55;24.68;102411.72;4356488;32;19954;-68
2022/07/08 09:06:42;;;;;;;;;;;;;;;36.40;23.98;102412.38;4354562;32;20908;-68
2022/07/08 09:09:08;;;;;;;;;;;;;;;36.73;23.43;102410.47;4353021;32;20443;-68
2022/07/08 09:11:34;;;;;;;;;;;;;;;36.69;23.34;102410.84;4355671;32;19990;-68
2022/07/08 09:14:21;;;;;;;;;;;;;;;36.88;22.79;102417.19;4358356;32;19975;-69
2022/07/08 09:17:08;;;;;;;;;;;;;;;37.22;22.76;102410.97;4353573;32;19969;-69
2022/07/08 09:19:33;;;;;;;;;;;;;;;37.23;22.73;102398.63;4355255;32;20670;-69
2022/07/08 09:21:59;;;;;;;;;;;;;;;37.46;22.27;102404.47;4357408;32;19994;-69
2022/07/08 09:24:26;;;;;;;;;;;;;;;37.27;21.95;102410.75;4364771;32;19986;-69
2022/07/08 09:26:55;;;;;;;;;;;;;;;38.20;21.39;102398.97;4355095;32;20033;-69
2022/07/08 09:29:21;;;;;;;;;;;;;;;38.06;21.37;102406.47;4352937;32;20014;-69
2022/07/08 09:31:48;;;;;;;;;;;;;;;37.89;21.78;102398.31;4357012;32;19966;-69
2022/07/08 09:34:16;;;;;;;;;;;;;;;38.18;21.48;102396.63;4355861;32;20032;-70
2022/07/08 09:36:43;;;;;;;;;;;;;;;38.87;20.77;102392.66;4355626;32;20038;-69
2022/07/08 09:39:15;;;;;;;;;;;;;;;38.53;20.96;102395.47;4356206;32;20002;-69
2022/07/08 09:41:46;;;;;;;;;;;;;;;38.49;20.95;102383.31;4352246;32;19993;-69
2022/07/08 09:44:14;;;;;;;;;;;;;;;39.16;20.45;102382.06;4354085;32;19969;-69
2022/07/08 09:46:41;;;;;;;;;;;;;;;39.24;20.00;102391.59;4357719;32;20002;-70
2022/07/08 09:49:07;;;;;;;;;;;;;;;38.50;20.83;102390.78;4366633;32;19958;-69
2022/07/08 09:51:35;;;;;;;;;;;;;;;38.48;20.89;102380.97;4357537;32;20726;-69
2022/07/08 09:54:09;;;;;;;;;;;;;;;38.76;20.52;102372.56;4354678;32;20012;-68
2022/07/08 09:56:35;;;;;;;;;;;;;;;39.06;20.09;102384.12;4358889;32;19963;-68
2022/07/08 09:59:01;;;;;;;;;;;;;;;39.33;19.72;102387.97;4357185;32;20013;-68
2022/07/08 10:01:28;;;;;;;;;;;;;;;39.33;19.54;102384.25;4357976;32;20034;-69
2022/07/08 10:03:54;;;;;;;;;;;;;;;39.62;19.18;102392.00;4367615;32;20019;-69
2022/07/08 10:06:19;;;;;;;;;;;;;;;39.93;18.97;102389.50;4359689;32;20065;-69
2022/07/08 10:08:45;;;;;;;;;;;;;;;40.15;18.71;102384.72;4357771;32;20017;-70
2022/07/08 10:11:12;;;;;;;;;;;;;;;39.73;19.11;102385.56;4357970;32;20056;-69
2022/07/08 10:13:39;;;;;;;;;;;;;;;39.88;18.90;102383.88;4358319;32;20135;-68
2022/07/08 10:16:08;;;;;;;;;;;;;;;40.15;18.84;102388.41;4355983;32;20128;-69
2022/07/08 10:18:35;;;;;;;;;;;;;;;39.82;19.12;102383.34;4358303;32;20053;-69
2022/07/08 10:21:03;;;;;;;;;;;;;;;40.14;18.94;102397.88;4359965;32;20434;-69
2022/07/08 10:23:34;;;;;;;;;;;;;;;40.73;18.24;102393.31;4359835;32;20020;-69
2022/07/08 10:26:01;;;;;;;;;;;;;;;40.55;18.37;102388.84;4357444;32;20557;-69
2022/07/08 10:28:33;;;;;;;;;;;;;;;40.31;18.65;102383.13;4357809;32;19954;-69
2022/07/08 10:30:59;;;;;;;;;;;;;;;41.00;18.01;102376.34;4358498;32;20048;-70
2022/07/08 10:33:25;;;;;;;;;;;;;;;40.53;18.61;102379.06;4355205;32;20002;-69
2022/07/08 10:36:07;;;;;;;;;;;;;;;40.49;18.70;102378.72;4354969;32;20483;-69
2022/07/08 10:38:41;;;;;;;;;;;;;;;41.08;18.49;102376.22;4360389;32;19985;-69
2022/07/08 10:41:09;;;;;;;;;;;;;;;41.68;17.95;102372.13;4363148;32;19946;-69
2022/07/08 10:43:35;;;;;;;;;;;;;;;41.74;18.20;102377.75;4358835;32;20018;-70
2022/07/08 10:46:03;;;;;;;;;;;;;;;42.22;17.44;102369.59;4356740;32;20012;-69
2022/07/08 10:48:28;;;;;;;;;;;;;;;42.31;17.44;102387.38;4360311;32;20013;-69
2022/07/08 10:50:54;;;;;;;;;;;;;;;42.25;17.47;102395.78;4358414;32;20333;-69
2022/07/08 10:53:19;;;;;;;;;;;;;;;41.40;18.05;102384.69;4357733;32;20115;-69
2022/07/08 10:55:47;;;;;;;;;;;;;;;41.01;18.29;102385.97;4359116;32;19974;-70
2022/07/08 10:58:12;;;;;;;;;;;;;;;41.75;17.79;102391.12;4357788;32;20447;-69
2022/07/08 11:00:39;;;;;;;;;;;;;;;40.82;18.70;102391.78;4355981;32;20605;-69
2022/07/08 11:03:08;;;;;;;;;;;;;;;41.37;17.97;102386.72;4357397;32;19983;-69
2022/07/08 11:08:25;;;;;;;;;;;;;;;41.69;17.45;102391.44;3903321;32;17054417;-70
2022/07/08 11:10:51;;;;;;;;;;;;;;;41.69;17.45;102391.44;4432974;32;19964;-69
2022/07/08 11:13:19;;;;;;;;;;;;;;;41.11;17.68;102389.78;4411171;32;19981;-69
2022/07/08 11:15:45;;;;;;;;;;;;;;;41.26;17.66;102383.59;4430969;32;19972;-69
2022/07/08 11:18:10;;;;;;;;;;;;;;;41.20;17.78;102383.88;4432630;32;19977;-68
2022/07/08 11:20:36;;;;;;;;;;;;;;;40.99;17.98;102388.75;4431550;32;19958;-69
2022/07/08 11:23:05;;;;;;;;;;;;;;;41.62;17.32;102383.50;4426995;32;20024;-69
2022/07/08 11:25:30;;;;;;;;;;;;;;;42.46;16.70;102387.03;4428433;32;20001;-69
2022/07/08 11:27:56;;;;;;;;;;;;;;;41.94;16.70;102400.81;4427819;32;19987;-69
2022/07/08 11:30:21;;;;;;;;;;;;;;;42.16;16.43;102395.78;4432769;32;19953;-69
2022/07/08 11:32:48;;;;;;;;;;;;;;;41.43;17.09;102383.44;4428686;32;19992;-69
2022/07/08 11:35:14;;;;;;;;;;;;;;;42.24;16.33;102391.25;4430249;32;20031;-69
2022/07/08 11:37:40;;;;;;;;;;;;;;;42.07;16.23;102387.69;4430700;32;20017;-69
2022/07/08 11:40:06;;;;;;;;;;;;;;;43.37;15.51;102391.44;4428778;32;19961;-69
2022/07/08 11:42:35;;;;;;;;;;;;;;;42.28;16.15;102390.78;4428437;32;20419;-68
2022/07/08 11:45:05;;;;;;;;;;;;;;;42.34;16.04;102389.09;4428078;32;20049;-68
2022/07/08 11:47:30;;;;;;;;;;;;;;;42.68;15.55;102391.66;4428735;32;20005;-68
2022/07/08 11:49:56;;;;;;;;;;;;;;;42.64;15.39;102391.31;4430184;32;20001;-68
2022/07/08 11:52:22;;;;;;;;;;;;;;;42.80;15.31;102392.56;4429395;32;19985;-68
2022/07/08 11:54:47;;;;;;;;;;;;;;;43.29;15.02;102384.19;4429146;32;20350;-69
2022/07/08 11:57:13;;;;;;;;;;;;;;;43.84;14.46;102395.50;4430432;32;19985;-68
2022/07/08 11:59:39;;;;;;;;;;;;;;;44.09;14.30;102387.62;4430025;32;19965;-70
2022/07/08 12:02:05;;;;;;;;;;;;;;;43.68;15.01;102388.44;4426995;32;19993;-69
2022/07/08 12:04:31;;;;;;;;;;;;;;;43.94;15.07;102390.25;4426735;32;20530;-69
2022/07/08 12:06:58;;;;;;;;;;;;;;;44.06;14.83;102385.16;4417260;32;19988;-70
2022/07/08 12:09:25;;;;;;;;;;;;;;;43.29;15.23;102378.25;4423394;32;20008;-69
2022/07/08 12:11:51;;;;;;;;;;;;;;;43.62;15.09;102379.13;4426788;32;20015;-70
2022/07/08 12:14:17;;;;;;;;;;;;;;;43.48;15.20;102369.25;4427919;32;19981;-70
2022/07/08 12:16:51;;;;;;;;;;;;;;;44.26;14.62;102372.47;4425534;32;20058;-70
2022/07/08 12:19:25;;;;;;;;;;;;;;;44.33;14.16;102370.69;4418048;32;20739;-72
2022/07/08 12:21:50;;;;;;;;;;;;;;;44.51;13.73;102360.75;4411913;32;20062;-68
2022/07/08 12:24:22;;;;;;;;;;;;;;;45.61;12.90;102375.19;4415874;32;19997;-70
2022/07/08 12:27:05;;;;;;;;;;;;;;;45.13;13.29;102367.00;4416065;32;19987;-70
2022/07/08 12:29:32;;;;;;;;;;;;;;;43.72;14.18;102367.97;4419118;32;19971;-71
2022/07/08 12:31:57;;;;;;;;;;;;;;;45.00;13.47;102363.94;4416151;32;20315;-71
2022/07/08 12:34:23;;;;;;;;;;;;;;;44.59;14.13;102373.16;4415145;32;20127;-70
2022/07/08 12:36:49;;;;;;;;;;;;;;;43.62;14.94;102370.22;4413268;32;20001;-69